Time;durP1;ratioP1;P1;durP2;ratioP2;P2;SDS_P1;SDS_P2;PMS_P1;PMS_P2;Temp;Humidity;BMP_temperature;BMP_pressure;BME280_temperature;BME280_humidity;BME280_pressure;Samples;Min_cycle;Max_cycle;Signal;HPM_P1;HPM_P2
2022/10/05 00:00:44;;;;;;;6.70;5.00;;;14.00;99.90;;;;;;2085747;28;20031;-70
2022/10/05 00:01:46;;;;;;;6.15;5.10;;;14.00;99.90;;;;;;2077772;28;20032;-70
2022/10/05 00:02:49;;;;;;;7.32;5.53;;;14.00;99.90;;;;;;2077250;28;20057;-70
2022/10/05 00:03:51;;;;;;;7.97;5.13;;;14.00;99.90;;;;;;2085757;28;20021;-70
2022/10/05 00:04:55;;;;;;;7.63;5.22;;;14.00;99.90;;;;;;2085158;28;20037;-70
2022/10/05 00:05:56;;;;;;;7.65;5.63;;;14.00;99.90;;;;;;2083060;28;20025;-70
2022/10/05 00:07:03;;;;;;;8.77;4.95;;;14.00;99.90;;;;;;2084888;28;20056;-70
2022/10/05 00:08:23;;;;;;;6.68;4.90;;;14.00;99.90;;;;;;2076936;28;20021;-70
2022/10/05 00:09:24;;;;;;;6.18;4.72;;;14.00;99.90;;;;;;2079369;28;20036;-70
2022/10/05 00:10:24;;;;;;;8.18;5.20;;;14.00;99.90;;;;;;2083855;28;20118;-70
2022/10/05 00:11:25;;;;;;;8.35;5.28;;;14.00;99.90;;;;;;2085361;28;20049;-70
2022/10/05 00:12:28;;;;;;;9.15;5.63;;;14.10;99.90;;;;;;2083859;28;20560;-70
2022/10/05 00:13:30;;;;;;;9.15;5.75;;;14.10;99.90;;;;;;2085510;28;20056;-70
2022/10/05 00:14:34;;;;;;;6.35;4.85;;;14.10;99.90;;;;;;2086294;28;20043;-70
2022/10/05 00:15:35;;;;;;;11.35;5.55;;;14.10;99.90;;;;;;2084791;28;20500;-70
2022/10/05 00:16:35;;;;;;;7.95;5.30;;;14.10;99.90;;;;;;2084387;28;20617;-70
2022/10/05 00:17:36;;;;;;;6.68;5.40;;;14.10;99.90;;;;;;2083900;28;20028;-70
2022/10/05 00:18:37;;;;;;;7.47;5.07;;;14.10;99.90;;;;;;2085021;28;20037;-70
2022/10/05 00:19:38;;;;;;;9.57;5.63;;;14.10;99.90;;;;;;2085567;28;20102;-70
2022/10/05 00:20:40;;;;;;;8.40;5.60;;;14.10;99.90;;;;;;2084461;28;20079;-70
2022/10/05 00:21:40;;;;;;;8.55;5.80;;;14.10;99.90;;;;;;2084128;28;20033;-70
2022/10/05 00:22:41;;;;;;;8.88;5.72;;;14.10;99.90;;;;;;2084832;28;20556;-70
2022/10/05 00:23:41;;;;;;;12.13;6.10;;;14.10;99.90;;;;;;2083763;28;20033;-70
2022/10/05 00:24:46;;;;;;;7.50;5.75;;;14.10;99.90;;;;;;2085984;28;20461;-70
2022/10/05 00:25:47;;;;;;;7.93;5.50;;;14.10;99.90;;;;;;2084573;28;20041;-70
2022/10/05 00:26:49;;;;;;;6.60;5.35;;;14.20;99.90;;;;;;2085956;28;20036;-70
2022/10/05 00:27:57;;;;;;;6.38;5.22;;;14.20;99.90;;;;;;2085182;28;20537;-70
2022/10/05 00:28:59;;;;;;;6.60;5.88;;;14.10;99.90;;;;;;2086200;28;20025;-70
2022/10/05 00:30:13;;;;;;;6.57;5.40;;;14.10;99.90;;;;;;2085943;28;20033;-70
2022/10/05 00:31:18;;;;;;;6.68;5.00;;;14.10;99.90;;;;;;2086056;28;20594;-70
2022/10/05 00:32:19;;;;;;;8.50;5.78;;;14.20;99.90;;;;;;2085386;28;20029;-70
2022/10/05 00:33:20;;;;;;;6.97;5.22;;;14.20;99.90;;;;;;2084938;28;20021;-70
2022/10/05 00:34:20;;;;;;;6.95;5.50;;;14.20;99.90;;;;;;2086458;28;20086;-70
2022/10/05 00:35:21;;;;;;;10.15;5.45;;;14.20;99.90;;;;;;2086229;28;20486;-70
2022/10/05 00:36:22;;;;;;;7.40;5.55;;;14.20;99.90;;;;;;2084382;28;20028;-70
2022/10/05 00:37:22;;;;;;;7.82;5.85;;;14.20;99.90;;;;;;2085173;28;20025;-70
2022/10/05 00:38:23;;;;;;;7.72;5.60;;;14.20;99.90;;;;;;2084977;28;20029;-70
2022/10/05 00:39:24;;;;;;;6.65;5.63;;;14.20;99.90;;;;;;2083680;28;20028;-70
2022/10/05 00:41:16;;;;;;;9.00;5.82;;;14.20;99.90;;;;;;2085579;28;20032;-70
2022/10/05 00:42:17;;;;;;;8.40;5.53;;;14.20;99.90;;;;;;2043640;29;20507;-70
2022/10/05 00:43:39;;;;;;;6.75;6.05;;;14.20;99.90;;;;;;2042863;29;20529;-70
2022/10/05 00:44:46;;;;;;;7.70;5.57;;;14.20;99.90;;;;;;2073881;28;20076;-70
2022/10/05 00:46:06;;;;;;;8.15;5.72;;;14.20;99.90;;;;;;2085006;28;20102;-70
2022/10/05 00:47:07;;;;;;;;;;;14.20;99.90;;;;;;2083693;28;20029;-70
2022/10/05 00:48:23;;;;;;;11.30;5.63;;;14.10;99.90;;;;;;2083983;28;20423;-70
2022/10/05 00:50:08;;;;;;;8.15;5.85;;;14.20;99.90;;;;;;2085981;28;20029;-70
2022/10/05 00:51:25;;;;;;;7.95;5.60;;;14.20;99.90;;;;;;2085891;28;20021;-70
2022/10/05 00:52:41;;;;;;;9.00;5.75;;;14.20;99.90;;;;;;2085419;28;20033;-70
2022/10/05 00:53:50;;;;;;;8.93;6.07;;;14.20;99.90;;;;;;2084422;28;20021;-70
2022/10/05 00:55:15;;;;;;;7.65;5.45;;;14.20;99.90;;;;;;2082507;28;20291;-70
2022/10/05 00:56:26;;;;;;;9.13;5.93;;;14.20;99.90;;;;;;2085578;28;20098;-70
2022/10/05 00:57:49;;;;;;;7.75;5.80;;;14.20;99.90;;;;;;2085409;28;20112;-70
2022/10/05 00:59:17;;;;;;;9.32;6.22;;;14.20;99.90;;;;;;2085089;28;20025;-70
2022/10/05 01:00:21;;;;;;;6.90;5.85;;;14.20;99.90;;;;;;2083895;28;20040;-70
2022/10/05 01:01:32;;;;;;;6.65;5.57;;;14.20;99.90;;;;;;2084897;28;20021;-70
2022/10/05 01:02:50;;;;;;;8.48;5.60;;;14.30;99.90;;;;;;2085169;28;20047;-70
2022/10/05 01:04:09;;;;;;;7.20;6.15;;;14.30;99.90;;;;;;2084491;28;20107;-70
2022/10/05 01:05:18;;;;;;;6.80;6.10;;;14.30;99.90;;;;;;2084936;28;20491;-70
2022/10/05 01:06:27;;;;;;;7.80;5.47;;;14.30;99.90;;;;;;2083686;28;20025;-70
2022/10/05 01:07:36;;;;;;;6.47;5.75;;;14.30;99.90;;;;;;2085010;28;20025;-70
2022/10/05 01:09:05;;;;;;;8.43;5.38;;;14.30;99.90;;;;;;2084251;28;20040;-70
2022/10/05 01:10:24;;;;;;;6.80;5.80;;;14.30;99.90;;;;;;2084248;28;20017;-70
2022/10/05 01:11:53;;;;;;;6.97;5.70;;;14.30;99.90;;;;;;2086601;28;20352;-70
2022/10/05 01:13:18;;;;;;;7.47;5.57;;;14.30;99.90;;;;;;2085943;28;20504;-70
2022/10/05 01:14:30;;;;;;;9.63;6.05;;;14.30;99.90;;;;;;2084119;28;20267;-70
2022/10/05 01:15:40;;;;;;;7.18;5.60;;;14.30;99.90;;;;;;2085082;28;20381;-70
2022/10/05 01:17:05;;;;;;;7.65;6.82;;;14.30;99.90;;;;;;2084918;28;20028;-70
2022/10/05 01:18:28;;;;;;;9.25;6.28;;;14.30;99.90;;;;;;2083781;28;20039;-70
2022/10/05 01:20:06;;;;;;;10.52;5.57;;;14.30;99.90;;;;;;2085245;28;20017;-70
2022/10/05 01:21:22;;;;;;;6.38;5.45;;;14.30;99.90;;;;;;2086138;28;20078;-70
2022/10/05 01:22:52;;;;;;;8.18;5.45;;;14.30;99.90;;;;;;2084472;28;20037;-70
2022/10/05 01:24:26;;;;;;;8.65;6.25;;;14.30;99.90;;;;;;2085072;28;20056;-70
2022/10/05 01:25:52;;;;;;;8.70;5.35;;;14.30;99.90;;;;;;2086933;28;20515;-70
2022/10/05 01:27:04;;;;;;;11.20;6.40;;;14.30;99.90;;;;;;2085732;28;20391;-70
2022/10/05 01:28:11;;;;;;;7.35;6.00;;;14.30;99.90;;;;;;2084990;28;20060;-70
2022/10/05 01:29:21;;;;;;;6.85;5.63;;;14.30;99.90;;;;;;2086571;28;20025;-70
2022/10/05 01:30:22;;;;;;;7.07;5.75;;;14.30;99.90;;;;;;2084855;28;20029;-70
2022/10/05 01:31:46;;;;;;;13.30;6.68;;;14.30;99.90;;;;;;2086405;28;20027;-70
2022/10/05 01:33:14;;;;;;;8.10;5.60;;;14.40;99.90;;;;;;2086194;28;20033;-70
2022/10/05 01:34:36;;;;;;;6.90;5.53;;;14.40;99.90;;;;;;2084679;28;20037;-70
2022/10/05 01:35:45;;;;;;;9.85;5.78;;;14.30;99.90;;;;;;2086875;28;20036;-70
2022/10/05 01:37:30;;;;;;;9.15;6.75;;;14.30;99.90;;;;;;2086693;28;20025;-70
2022/10/05 01:38:54;;;;;;;7.88;5.65;;;14.40;99.90;;;;;;2052793;28;20039;-70
2022/10/05 01:40:12;;;;;;;8.98;6.38;;;14.30;99.90;;;;;;2052647;28;20070;-70
2022/10/05 01:41:36;;;;;;;7.93;6.50;;;14.40;99.90;;;;;;2051245;28;20073;-70
2022/10/05 01:42:45;;;;;;;8.85;5.70;;;14.40;99.90;;;;;;2044753;28;20616;-69
2022/10/05 01:43:54;;;;;;;7.90;6.45;;;14.40;99.90;;;;;;2049121;28;20495;-70
2022/10/05 01:45:15;;;;;;;10.15;6.55;;;14.40;99.90;;;;;;2087575;28;20037;-70
2022/10/05 01:46:21;;;;;;;9.40;6.45;;;14.40;99.90;;;;;;2085670;28;20035;-70
2022/10/05 01:47:43;;;;;;;7.93;5.88;;;14.40;99.90;;;;;;2088582;28;20033;-70
2022/10/05 01:49:10;;;;;;;7.78;5.80;;;14.40;99.90;;;;;;2086573;28;20021;-69
2022/10/05 01:50:44;;;;;;;6.60;5.90;;;14.40;99.90;;;;;;2085692;28;20035;-70
2022/10/05 01:52:26;;;;;;;7.65;6.28;;;14.40;99.90;;;;;;2088300;28;20017;-70
2022/10/05 01:53:45;;;;;;;10.73;6.07;;;14.40;99.90;;;;;;2085463;28;20033;-70
2022/10/05 01:55:19;;;;;;;7.30;6.00;;;14.40;99.90;;;;;;2087790;28;20045;-70
2022/10/05 01:56:41;;;;;;;8.60;6.15;;;14.40;99.90;;;;;;2086635;28;20070;-69
2022/10/05 01:57:55;;;;;;;6.72;6.03;;;14.40;99.90;;;;;;2084887;28;20021;-70
2022/10/05 01:59:02;;;;;;;7.90;6.03;;;14.40;99.90;;;;;;2085903;28;20431;-70
2022/10/05 02:00:11;;;;;;;7.75;5.63;;;14.40;99.90;;;;;;2084817;28;20040;-70
2022/10/05 02:01:37;;;;;;;15.25;6.32;;;14.50;99.90;;;;;;2084387;28;20020;-70
2022/10/05 02:02:54;;;;;;;7.50;6.07;;;14.40;99.90;;;;;;2085904;28;20037;-69
2022/10/05 02:04:04;;;;;;;10.00;6.30;;;14.40;99.90;;;;;;2085516;28;20063;-70
2022/10/05 02:05:11;;;;;;;8.18;5.68;;;14.40;99.90;;;;;;2086445;28;20017;-70
2022/10/05 02:06:26;;;;;;;9.80;5.93;;;14.50;99.90;;;;;;2086397;28;20017;-70
2022/10/05 02:07:48;;;;;;;7.72;5.90;;;14.50;99.90;;;;;;2086153;28;20107;-70
2022/10/05 02:09:00;;;;;;;8.23;6.13;;;14.50;99.90;;;;;;2085691;28;20499;-70
2022/10/05 02:10:39;;;;;;;8.23;5.82;;;14.50;99.90;;;;;;2087465;28;20040;-69
2022/10/05 02:11:44;;;;;;;9.57;6.25;;;14.50;99.90;;;;;;2074288;28;20030;-70
2022/10/05 02:12:47;;;;;;;6.50;5.85;;;14.50;99.90;;;;;;2086496;28;20025;-70
2022/10/05 02:13:56;;;;;;;9.57;6.13;;;14.50;99.90;;;;;;2086455;28;20029;-70
2022/10/05 02:15:06;;;;;;;9.80;6.43;;;14.50;99.90;;;;;;2083797;28;20170;-70
2022/10/05 02:16:17;;;;;;;7.95;6.15;;;14.50;99.90;;;;;;2087507;28;20032;-70
2022/10/05 02:17:27;;;;;;;7.82;6.10;;;14.50;99.90;;;;;;2087585;28;20404;-70
2022/10/05 02:18:35;;;;;;;7.87;5.77;;;14.50;99.90;;;;;;2087064;28;20048;-70
2022/10/05 02:19:43;;;;;;;8.63;6.53;;;14.50;99.90;;;;;;2085417;28;20271;-70
2022/10/05 02:20:45;;;;;;;10.63;5.95;;;14.50;99.90;;;;;;2086568;28;20036;-70
2022/10/05 02:21:53;;;;;;;8.65;6.22;;;14.60;99.90;;;;;;2086047;28;20499;-70
2022/10/05 02:23:01;;;;;;;7.43;5.93;;;14.60;99.90;;;;;;2086976;28;20078;-70
2022/10/05 02:24:08;;;;;;;8.60;5.85;;;14.60;99.90;;;;;;2087973;28;20039;-70
2022/10/05 02:25:13;;;;;;;7.43;5.97;;;14.60;99.90;;;;;;2088226;28;20567;-70
2022/10/05 02:26:16;;;;;;;10.60;6.22;;;14.60;99.90;;;;;;2084723;28;21169;-69
2022/10/05 02:27:23;;;;;;;6.50;5.80;;;14.60;99.90;;;;;;2085324;28;20108;-69
2022/10/05 02:28:38;;;;;;;7.78;5.80;;;14.60;99.90;;;;;;2086468;28;20578;-70
2022/10/05 02:29:44;;;;;;;10.32;6.20;;;14.60;99.90;;;;;;2086413;28;20029;-70
2022/10/05 02:31:11;;;;;;;6.25;5.65;;;14.60;99.90;;;;;;2086942;28;20029;-70
2022/10/05 02:32:21;;;;;;;7.03;6.35;;;14.60;99.90;;;;;;2076289;28;20034;-69
2022/10/05 02:33:27;;;;;;;7.30;6.22;;;14.60;99.90;;;;;;2078792;28;20060;-70
2022/10/05 02:34:46;;;;;;;9.02;5.88;;;14.60;99.90;;;;;;2085464;28;20033;-70
2022/10/05 02:35:46;;;;;;;10.27;6.35;;;14.60;99.90;;;;;;2077954;28;20024;-70
2022/10/05 02:37:06;;;;;;;8.07;6.40;;;14.60;99.90;;;;;;2085288;28;20017;-70
2022/10/05 02:38:34;;;;;;;9.38;6.32;;;14.70;99.90;;;;;;2085952;28;20052;-70
2022/10/05 02:40:00;;;;;;;6.95;6.25;;;14.70;99.90;;;;;;2086827;28;20021;-70
2022/10/05 02:41:35;;;;;;;8.93;6.53;;;14.60;99.90;;;;;;2079983;28;20039;-70
2022/10/05 02:42:51;;;;;;;9.10;6.30;;;14.60;99.90;;;;;;2077291;28;20083;-70
2022/10/05 02:44:09;;;;;;;8.75;6.28;;;14.60;99.90;;;;;;2079885;28;20026;-70
2022/10/05 02:45:49;;;;;;;8.80;6.00;;;14.60;99.90;;;;;;2085611;28;20025;-70
2022/10/05 02:47:12;;;;;;;9.30;6.35;;;14.60;99.90;;;;;;2085170;28;20029;-70
2022/10/05 02:48:21;;;;;;;7.70;6.47;;;14.60;99.90;;;;;;2085559;28;20026;-70
2022/10/05 02:49:34;;;;;;;10.13;6.18;;;14.60;99.90;;;;;;2085983;28;20056;-70
2022/10/05 02:50:44;;;;;;;7.35;5.95;;;14.60;99.90;;;;;;2084691;28;20142;-70
2022/10/05 02:51:59;;;;;;;9.65;5.97;;;14.70;99.90;;;;;;2086240;28;20074;-70
2022/10/05 02:53:32;;;;;;;9.75;6.00;;;14.70;99.90;;;;;;2084338;28;20025;-70
2022/10/05 02:54:57;;;;;;;7.40;5.68;;;14.70;99.90;;;;;;2086119;28;20032;-70
2022/10/05 02:56:10;;;;;;;6.47;5.82;;;14.60;99.90;;;;;;2086238;28;20472;-70
2022/10/05 02:57:28;;;;;;;9.60;6.32;;;14.60;99.90;;;;;;2084079;28;20182;-70
2022/10/05 02:58:48;;;;;;;6.18;5.47;;;14.60;99.90;;;;;;2084111;28;20091;-69
2022/10/05 03:00:15;;;;;;;8.90;5.90;;;14.60;99.90;;;;;;2085913;28;20167;-70
2022/10/05 03:01:30;;;;;;;6.85;5.85;;;14.60;99.90;;;;;;2085576;28;20033;-70
2022/10/05 03:02:47;;;;;;;9.40;5.93;;;14.60;99.90;;;;;;2086053;28;20041;-70
2022/10/05 03:04:04;;;;;;;8.05;5.95;;;14.60;99.90;;;;;;2085334;28;20801;-70
2022/10/05 03:05:17;;;;;;;6.72;6.03;;;14.60;99.90;;;;;;2084532;28;20051;-70
2022/10/05 03:06:24;;;;;;;5.90;5.40;;;14.60;99.90;;;;;;2087463;28;20047;-70
2022/10/05 03:07:47;;;;;;;8.05;6.40;;;14.60;99.90;;;;;;2087849;28;20108;-70
2022/10/05 03:08:54;;;;;;;6.50;5.75;;;14.60;99.90;;;;;;2084531;28;20067;-70
2022/10/05 03:10:09;;;;;;;7.03;5.68;;;14.60;99.90;;;;;;2078793;28;20040;-70
2022/10/05 03:11:31;;;;;;;8.32;6.13;;;14.60;99.90;;;;;;2079331;28;20017;-70
2022/10/05 03:13:07;;;;;;;6.85;6.03;;;14.60;99.90;;;;;;2083683;28;20499;-70
2022/10/05 03:14:27;;;;;;;6.93;6.13;;;14.60;99.90;;;;;;2085079;28;20025;-70
2022/10/05 03:15:37;;;;;;;9.20;6.30;;;14.60;99.90;;;;;;2085485;28;20036;-70
2022/10/05 03:16:40;;;;;;;;;;;14.60;99.90;;;;;;2087330;28;20536;-70
2022/10/05 03:18:12;;;;;;;7.28;6.35;;;14.50;99.90;;;;;;2086091;28;19917;-70
2022/10/05 03:19:24;;;;;;;6.82;5.82;;;14.60;99.90;;;;;;2086375;28;20120;-70
2022/10/05 03:20:38;;;;;;;9.13;6.45;;;14.60;99.90;;;;;;2084180;28;20021;-70
2022/10/05 03:21:57;;;;;;;7.38;6.03;;;14.60;99.90;;;;;;2085291;28;20365;-70
2022/10/05 03:23:06;;;;;;;9.75;7.00;;;14.60;99.90;;;;;;2083634;28;20116;-70
2022/10/05 03:24:25;;;;;;;7.88;6.45;;;14.60;99.90;;;;;;2085172;28;20053;-70
2022/10/05 03:25:54;;;;;;;10.98;6.38;;;14.60;99.90;;;;;;2085589;28;20564;-70
2022/10/05 03:27:14;;;;;;;6.50;5.90;;;14.60;99.90;;;;;;2085065;28;20055;-70
2022/10/05 03:28:28;;;;;;;10.27;6.43;;;14.50;99.90;;;;;;2084865;28;20112;-70
2022/10/05 03:29:42;;;;;;;7.55;6.38;;;14.60;99.90;;;;;;2086074;28;20601;-70
2022/10/05 03:30:55;;;;;;;6.88;6.10;;;14.60;99.90;;;;;;2086416;28;20036;-70
2022/10/05 03:32:14;;;;;;;9.40;6.88;;;14.60;99.90;;;;;;2085559;28;20036;-70
2022/10/05 03:33:26;;;;;;;9.13;6.32;;;14.60;99.90;;;;;;2085260;28;20013;-70
2022/10/05 03:34:44;;;;;;;7.53;5.78;;;14.60;99.90;;;;;;2084770;28;20623;-70
2022/10/05 03:36:09;;;;;;;10.73;6.82;;;14.60;99.90;;;;;;2085477;28;20484;-70
2022/10/05 03:37:28;;;;;;;9.30;6.10;;;14.60;99.90;;;;;;2078351;28;20028;-70
2022/10/05 03:38:39;;;;;;;7.97;6.50;;;14.60;99.90;;;;;;2081061;28;20033;-70
2022/10/05 03:40:00;;;;;;;11.43;7.25;;;14.50;99.90;;;;;;2084811;28;20090;-70
2022/10/05 03:41:46;;;;;;;8.38;6.47;;;14.60;99.90;;;;;;2084107;28;20025;-70
2022/10/05 03:43:29;;;;;;;7.28;6.60;;;14.60;99.90;;;;;;2084641;28;20103;-70
2022/10/05 03:44:43;;;;;;;9.90;6.70;;;14.50;99.90;;;;;;2085998;28;20060;-70
2022/10/05 03:46:04;;;;;;;8.07;6.00;;;14.50;99.90;;;;;;2084836;28;20376;-70
2022/10/05 03:47:05;;;;;;;10.20;6.20;;;14.60;99.90;;;;;;2084385;28;20017;-70
2022/10/05 03:48:17;;;;;;;7.03;6.00;;;14.50;99.90;;;;;;2085170;28;20025;-70
2022/10/05 03:49:57;;;;;;;9.15;5.95;;;14.60;99.90;;;;;;2086033;28;20469;-70
2022/10/05 03:51:13;;;;;;;7.57;6.40;;;14.60;99.90;;;;;;2085754;28;20046;-70
2022/10/05 03:52:18;;;;;;;7.85;6.70;;;14.50;99.90;;;;;;2084813;28;20473;-70
2022/10/05 03:53:26;;;;;;;11.27;7.20;;;14.50;99.90;;;;;;2086513;28;20595;-70
2022/10/05 03:54:35;;;;;;;10.23;6.53;;;14.50;99.90;;;;;;2085331;28;20127;-70
2022/10/05 03:55:44;;;;;;;10.30;6.63;;;14.50;99.90;;;;;;2084225;28;20017;-70
2022/10/05 03:56:48;;;;;;;7.93;6.75;;;14.60;99.90;;;;;;2083527;28;20067;-69
2022/10/05 03:57:51;;;;;;;9.45;6.30;;;14.60;99.90;;;;;;2085893;28;20052;-70
2022/10/05 03:59:04;;;;;;;8.30;6.15;;;14.60;99.90;;;;;;2083679;28;20044;-70
2022/10/05 04:00:14;;;;;;;7.30;6.57;;;14.60;99.90;;;;;;2086863;28;20036;-70
2022/10/05 04:01:18;;;;;;;;;;;14.60;99.90;;;;;;2085234;28;20036;-70
2022/10/05 04:02:42;;;;;;;9.52;6.25;;;14.50;99.90;;;;;;2085522;28;19982;-70
2022/10/05 04:03:47;;;;;;;11.40;6.78;;;14.50;99.90;;;;;;2085708;28;20476;-70
2022/10/05 04:04:56;;;;;;;8.60;6.13;;;14.50;99.90;;;;;;2086061;28;20025;-70
2022/10/05 04:06:03;;;;;;;7.13;6.03;;;14.60;99.90;;;;;;2076925;28;20025;-70
2022/10/05 04:07:08;;;;;;;7.97;6.72;;;14.60;99.90;;;;;;2079548;28;20129;-70
2022/10/05 04:08:39;;;;;;;8.75;6.53;;;14.60;99.90;;;;;;2085776;28;20727;-70
2022/10/05 04:09:44;;;;;;;11.57;6.60;;;14.50;99.90;;;;;;2073428;28;20068;-70
2022/10/05 04:10:51;;;;;;;8.98;6.50;;;14.50;99.90;;;;;;2076194;28;20056;-70
2022/10/05 04:12:24;;;;;;;10.07;6.28;;;14.60;99.90;;;;;;2084652;28;20099;-70
2022/10/05 04:13:41;;;;;;;7.18;5.82;;;14.60;99.90;;;;;;2084169;28;20113;-70
2022/10/05 04:14:48;;;;;;;9.10;6.93;;;14.50;99.90;;;;;;2085970;28;20579;-70
2022/10/05 04:16:07;;;;;;;7.15;6.13;;;14.50;99.90;;;;;;2085965;28;20025;-70
2022/10/05 04:17:16;;;;;;;10.15;6.88;;;14.50;99.90;;;;;;2083779;28;20082;-70
2022/10/05 04:18:27;;;;;;;13.75;6.68;;;14.50;99.90;;;;;;2085205;28;20115;-70
2022/10/05 04:19:53;;;;;;;8.77;6.57;;;14.50;99.90;;;;;;2085265;28;20116;-70
2022/10/05 04:21:00;;;;;;;7.65;6.18;;;14.50;99.90;;;;;;2085660;28;20108;-70
2022/10/05 04:22:09;;;;;;;10.43;6.38;;;14.50;99.90;;;;;;2086421;28;20384;-70
2022/10/05 04:23:09;;;;;;;10.30;6.15;;;14.50;99.90;;;;;;2084033;28;20060;-70
2022/10/05 04:24:13;;;;;;;9.05;6.43;;;14.50;99.90;;;;;;2085820;28;20571;-70
2022/10/05 04:25:21;;;;;;;6.90;6.07;;;14.50;99.90;;;;;;2085110;28;20377;-70
2022/10/05 04:26:44;;;;;;;7.82;6.13;;;14.50;99.90;;;;;;2083310;28;20582;-70
2022/10/05 04:28:13;;;;;;;7.20;6.47;;;14.50;99.90;;;;;;2085205;28;20095;-70
2022/10/05 04:29:51;;;;;;;11.15;6.60;;;14.50;99.90;;;;;;2050905;28;20042;-70
2022/10/05 04:30:53;;;;;;;8.55;6.10;;;14.40;99.90;;;;;;2050798;28;20031;-70
2022/10/05 04:32:12;;;;;;;11.05;6.30;;;14.40;99.90;;;;;;2052117;28;20557;-70
2022/10/05 04:33:14;;;;;;;7.97;6.32;;;14.50;99.90;;;;;;2066639;28;20037;-70
2022/10/05 04:34:21;;;;;;;9.38;6.55;;;14.40;99.90;;;;;;2084992;28;20020;-70
2022/10/05 04:35:41;;;;;;;13.15;6.57;;;14.40;99.90;;;;;;2085846;28;20024;-70
2022/10/05 04:36:58;;;;;;;6.90;6.22;;;14.40;99.90;;;;;;2084627;28;20036;-70
2022/10/05 04:38:20;;;;;;;7.43;6.60;;;14.40;99.90;;;;;;2085240;28;20049;-70
2022/10/05 04:39:35;;;;;;;8.60;6.85;;;14.40;99.90;;;;;;2075104;28;20025;-70
2022/10/05 04:40:48;;;;;;;8.32;6.13;;;14.40;99.90;;;;;;2071894;28;20089;-70
2022/10/05 04:42:03;;;;;;;8.73;6.60;;;14.40;99.90;;;;;;2078825;28;20028;-70
2022/10/05 04:43:12;;;;;;;8.25;6.35;;;14.40;99.90;;;;;;2085637;28;20047;-70
2022/10/05 04:44:30;;;;;;;7.07;6.38;;;14.40;99.90;;;;;;2085656;28;20485;-70
2022/10/05 04:45:55;;;;;;;7.25;6.35;;;14.40;99.90;;;;;;2085324;28;20098;-70
2022/10/05 04:47:21;;;;;;;7.07;5.70;;;14.40;99.90;;;;;;2084348;28;20032;-70
2022/10/05 04:48:27;;;;;;;8.63;6.25;;;14.40;99.90;;;;;;2084442;28;20043;-70
2022/10/05 04:49:39;;;;;;;7.80;6.55;;;14.40;99.90;;;;;;2084648;28;20025;-70
2022/10/05 04:51:19;;;;;;;7.05;6.20;;;14.40;99.90;;;;;;2085875;28;20023;-70
2022/10/05 04:52:44;;;;;;;7.30;6.45;;;14.40;99.90;;;;;;2085133;28;20071;-70
2022/10/05 04:53:55;;;;;;;7.00;6.20;;;14.40;99.90;;;;;;2084805;28;20451;-70
2022/10/05 04:55:08;;;;;;;9.80;6.75;;;14.40;99.90;;;;;;2085634;28;20025;-70
2022/10/05 04:56:10;;;;;;;9.75;6.05;;;14.40;99.90;;;;;;2085534;28;20029;-70
2022/10/05 04:57:22;;;;;;;6.90;6.20;;;14.40;99.90;;;;;;2087628;28;20104;-70
2022/10/05 04:59:11;;;;;;;8.90;6.38;;;14.50;99.90;;;;;;2086392;28;20021;-70
2022/10/05 05:00:19;;;;;;;8.70;6.22;;;14.50;99.90;;;;;;2070063;28;20030;-70
2022/10/05 05:01:38;;;;;;;7.90;6.75;;;14.50;99.90;;;;;;2087052;28;20064;-70
2022/10/05 05:02:46;;;;;;;7.72;6.13;;;14.50;99.90;;;;;;2085885;28;20021;-70
2022/10/05 05:04:38;;;;;;;6.93;6.18;;;14.50;99.90;;;;;;2086699;28;20029;-70
2022/10/05 05:06:06;;;;;;;8.10;6.78;;;14.50;99.90;;;;;;2053493;28;20026;-70
2022/10/05 05:07:37;;;;;;;9.52;6.63;;;14.50;99.90;;;;;;2085220;28;20029;-70
2022/10/05 05:08:52;;;;;;;8.27;6.80;;;14.50;99.90;;;;;;2087011;28;20032;-70
2022/10/05 05:10:07;;;;;;;10.63;7.80;;;14.50;99.90;;;;;;2085680;28;20036;-70
2022/10/05 05:11:27;;;;;;;7.38;6.38;;;14.50;99.90;;;;;;2085109;28;20029;-70
2022/10/05 05:12:38;;;;;;;8.07;6.43;;;14.50;99.90;;;;;;2084737;28;20051;-70
2022/10/05 05:13:54;;;;;;;8.10;6.13;;;14.60;99.90;;;;;;2086694;28;20021;-70
2022/10/05 05:15:25;;;;;;;6.95;5.97;;;14.60;99.90;;;;;;2087507;28;20488;-70
2022/10/05 05:16:43;;;;;;;10.88;6.20;;;14.60;99.90;;;;;;2086265;28;20070;-70
2022/10/05 05:18:09;;;;;;;8.95;7.40;;;14.50;99.90;;;;;;2086268;28;20024;-70
2022/10/05 05:20:13;;;;;;;11.02;7.53;;;14.60;99.90;;;;;;2084790;28;20018;-70
2022/10/05 05:21:27;;;;;;;9.35;6.10;;;14.60;99.90;;;;;;2053750;28;20026;-70
2022/10/05 05:22:52;;;;;;;8.93;6.43;;;14.60;99.90;;;;;;2053757;28;20130;-70
2022/10/05 05:24:30;;;;;;;8.60;6.20;;;14.60;99.90;;;;;;2086125;28;20037;-70
2022/10/05 05:26:09;;;;;;;7.95;6.60;;;14.60;99.90;;;;;;2085858;28;20067;-70
2022/10/05 05:27:38;;;;;;;9.30;7.40;;;14.60;99.90;;;;;;2085439;28;20029;-70
2022/10/05 05:29:21;;;;;;;6.82;6.13;;;14.60;99.90;;;;;;2079352;28;20018;-70
2022/10/05 05:30:29;;;;;;;8.75;6.53;;;14.60;99.90;;;;;;2082732;28;21024;-70
2022/10/05 05:31:32;;;;;;;8.88;6.38;;;14.60;99.90;;;;;;2085705;28;20491;-70
2022/10/05 05:33:03;;;;;;;7.38;6.57;;;14.60;99.90;;;;;;2085456;28;20053;-70
2022/10/05 05:34:25;;;;;;;7.05;6.10;;;14.60;99.90;;;;;;2086739;28;20029;-70
2022/10/05 05:35:34;;;;;;;8.93;6.70;;;14.60;99.90;;;;;;2086294;28;20084;-70
2022/10/05 05:37:11;;;;;;;11.30;7.28;;;14.60;99.90;;;;;;2085840;28;20075;-70
2022/10/05 05:38:40;;;;;;;8.00;6.75;;;14.60;99.90;;;;;;2086020;28;20021;-70
2022/10/05 05:39:52;;;;;;;8.85;7.07;;;14.60;99.90;;;;;;2084553;28;20018;-70
2022/10/05 05:41:04;;;;;;;6.78;6.07;;;14.70;99.90;;;;;;2086781;28;20621;-70
2022/10/05 05:42:16;;;;;;;7.07;6.20;;;14.70;99.90;;;;;;2086340;28;20128;-70
2022/10/05 05:43:29;;;;;;;7.72;6.72;;;14.70;99.90;;;;;;2085839;28;20052;-70
2022/10/05 05:44:46;;;;;;;6.95;6.20;;;14.70;99.90;;;;;;2086232;28;20036;-70
2022/10/05 05:45:58;;;;;;;8.05;6.50;;;14.70;99.90;;;;;;2084445;28;20018;-70
2022/10/05 05:47:19;;;;;;;9.63;6.68;;;14.70;99.90;;;;;;2085036;28;20717;-70
2022/10/05 05:48:39;;;;;;;9.65;6.28;;;14.70;99.90;;;;;;2085373;28;20374;-70
2022/10/05 05:50:09;;;;;;;7.60;6.43;;;14.80;99.90;;;;;;2086041;28;20021;-70
2022/10/05 05:51:27;;;;;;;9.10;6.47;;;14.70;99.90;;;;;;2080956;28;20114;-70
2022/10/05 05:52:33;;;;;;;6.90;5.97;;;14.70;99.90;;;;;;2085697;28;20087;-70
2022/10/05 05:53:44;;;;;;;6.35;5.82;;;14.80;99.90;;;;;;2085037;28;20021;-70
2022/10/05 05:54:55;;;;;;;9.15;6.20;;;14.80;99.90;;;;;;2083872;28;20024;-70
2022/10/05 05:56:27;;;;;;;7.35;6.05;;;14.80;99.90;;;;;;2084422;28;20025;-70
2022/10/05 05:57:55;;;;;;;8.48;6.45;;;14.80;99.90;;;;;;2078588;28;20562;-70
2022/10/05 05:59:02;;;;;;;6.85;6.10;;;14.80;99.90;;;;;;2084680;28;20388;-70
2022/10/05 06:00:06;;;;;;;10.45;5.70;;;14.80;99.90;;;;;;2085211;28;20032;-70
2022/10/05 06:01:32;;;;;;;7.00;6.30;;;14.80;99.90;;;;;;2084011;28;20028;-70
2022/10/05 06:02:47;;;;;;;6.60;5.68;;;14.80;99.90;;;;;;2085562;28;20020;-70
2022/10/05 06:03:50;;;;;;;10.73;6.13;;;14.80;99.90;;;;;;2084684;28;20029;-70
2022/10/05 06:05:37;;;;;;;9.07;6.28;;;14.90;99.90;;;;;;2086284;28;20482;-70
2022/10/05 06:06:43;;;;;;;7.63;6.28;;;14.80;99.90;;;;;;2085999;28;20473;-70
2022/10/05 06:07:43;;;;;;;8.90;5.93;;;14.80;99.90;;;;;;2086198;28;20021;-70
2022/10/05 06:08:59;;;;;;;8.88;5.65;;;14.90;99.90;;;;;;2085893;28;20024;-70
2022/10/05 06:10:12;;;;;;;6.30;5.70;;;14.90;99.90;;;;;;2086222;28;20130;-71
2022/10/05 06:11:27;;;;;;;7.50;5.40;;;14.90;99.90;;;;;;2085867;28;20060;-70
2022/10/05 06:12:40;;;;;;;6.20;5.45;;;15.00;99.90;;;;;;2086182;28;20361;-70
2022/10/05 06:13:41;;;;;;;5.75;5.03;;;14.90;99.90;;;;;;2085499;28;20112;-70
2022/10/05 06:15:12;;;;;;;7.50;5.85;;;15.00;99.90;;;;;;2085011;28;20060;-70
2022/10/05 06:16:25;;;;;;;5.38;4.88;;;15.00;99.90;;;;;;2085989;28;20384;-70
2022/10/05 06:17:47;;;;;;;7.57;5.47;;;15.00;99.90;;;;;;2087025;28;20111;-70
2022/10/05 06:18:55;;;;;;;8.77;5.40;;;15.00;99.90;;;;;;2085738;28;20032;-70
2022/10/05 06:19:56;;;;;;;5.72;5.05;;;15.00;99.90;;;;;;2085506;28;20108;-70
2022/10/05 06:21:19;;;;;;;6.18;5.30;;;15.00;99.90;;;;;;2087944;28;20029;-70
2022/10/05 06:22:39;;;;;;;5.88;4.93;;;15.00;99.90;;;;;;2085631;28;20037;-70
2022/10/05 06:23:47;;;;;;;7.10;5.40;;;15.10;99.90;;;;;;2085782;28;20035;-70
2022/10/05 06:25:13;;;;;;;6.32;5.70;;;15.10;99.90;;;;;;2085361;28;20412;-70
2022/10/05 06:26:42;;;;;;;6.82;5.78;;;15.10;99.90;;;;;;2086356;28;20037;-70
2022/10/05 06:28:06;;;;;;;6.30;5.28;;;15.10;99.90;;;;;;2086108;28;20025;-70
2022/10/05 06:29:21;;;;;;;6.93;4.93;;;15.10;99.90;;;;;;2087096;28;20025;-70
2022/10/05 06:30:22;;;;;;;7.43;5.32;;;15.10;99.90;;;;;;2077774;28;20756;-70
2022/10/05 06:31:28;;;;;;;7.50;5.03;;;15.10;99.90;;;;;;2075217;28;20033;-70
2022/10/05 06:32:34;;;;;;;6.43;5.15;;;15.20;99.90;;;;;;2086848;28;20026;-70